Time;durP1;ratioP1;P1;durP2;ratioP2;P2;SDS_P1;SDS_P2;PMS_P1;PMS_P2;Temp;Humidity;BMP_temperature;BMP_pressure;BME280_temperature;BME280_humidity;BME280_pressure;Samples;Min_cycle;Max_cycle;Signal;HPM_P1;HPM_P2
2022/12/02 00:00:48;;;;;;;73.85;25.77;;;;;;;;;;4981298;28;20058;-65
2022/12/02 00:03:18;;;;;;;70.70;23.00;;;;;;;;;;4998429;28;20109;-65
2022/12/02 00:05:46;;;;;;;68.13;25.25;;;;;;;;;;4983446;28;20198;-66
2022/12/02 00:08:21;;;;;;;75.53;25.38;;;;;;;;;;4983677;28;20046;-66
2022/12/02 00:10:48;;;;;;;77.55;25.42;;;;;;;;;;4982322;28;20479;-65
2022/12/02 00:13:40;;;;;;;72.57;25.52;;;;;;;;;;4982657;28;20058;-65
2022/12/02 00:16:18;;;;;;;78.87;27.80;;;;;;;;;;4982651;28;20058;-65
2022/12/02 00:18:43;;;;;;;86.82;26.58;;;;;;;;;;4982601;28;20100;-65
2022/12/02 00:21:08;;;;;;;88.88;29.55;;;;;;;;;;4983282;28;20046;-65
2022/12/02 00:23:34;;;;;;;94.65;27.95;;;;;;;;;;4982742;28;20439;-65
2022/12/02 00:25:59;;;;;;;99.30;28.80;;;;;;;;;;4982414;28;20496;-65
2022/12/02 00:28:25;;;;;;;100.85;29.10;;;;;;;;;;4981960;28;20072;-71
2022/12/02 00:30:50;;;;;;;93.60;29.45;;;;;;;;;;4981513;28;20580;-65
2022/12/02 00:33:17;;;;;;;95.45;28.95;;;;;;;;;;4980689;28;21135;-65
2022/12/02 00:35:43;;;;;;;100.63;30.95;;;;;;;;;;4981089;28;20129;-64
2022/12/02 00:38:08;;;;;;;97.75;29.25;;;;;;;;;;4981211;28;20058;-65
2022/12/02 00:40:34;;;;;;;99.90;30.00;;;;;;;;;;4980158;28;20104;-65
2022/12/02 00:48:28;;;;;;;79.10;28.25;;;;;;;;;;4996748;28;20049;-66
2022/12/02 00:50:54;;;;;;;72.68;25.90;;;;;;;;;;4982356;28;20054;-66
2022/12/02 00:53:19;;;;;;;74.00;26.30;;;;;;;;;;4982606;28;20136;-65
2022/12/02 00:55:45;;;;;;;77.03;26.50;;;;;;;;;;4980149;28;20053;-65
2022/12/02 00:58:11;;;;;;;80.72;27.65;;;;;;;;;;4981200;28;20038;-64
2022/12/02 01:00:36;;;;;;;81.20;28.40;;;;;;;;;;4981808;28;20049;-64
2022/12/02 01:03:03;;;;;;;86.90;28.55;;;;;;;;;;4981029;28;20049;-65
2022/12/02 01:05:28;;;;;;;84.88;27.80;;;;;;;;;;4980573;28;20054;-67
2022/12/02 01:07:53;;;;;;;82.75;26.13;;;;;;;;;;4996208;28;20054;-68
2022/12/02 01:10:19;;;;;;;81.38;27.75;;;;;;;;;;4982186;28;20069;-67
2022/12/02 01:12:45;;;;;;;94.90;30.63;;;;;;;;;;4980555;28;20081;-67
2022/12/02 01:15:11;;;;;;;100.60;30.13;;;;;;;;;;4982068;28;20141;-64
2022/12/02 01:17:37;;;;;;;87.78;28.95;;;;;;;;;;4981123;28;20058;-64
2022/12/02 01:20:02;;;;;;;95.00;30.45;;;;;;;;;;4980809;28;20081;-64
2022/12/02 01:22:28;;;;;;;86.30;30.67;;;;;;;;;;4979800;28;20153;-68
2022/12/02 01:24:53;;;;;;;89.03;32.75;;;;;;;;;;4980932;28;20086;-65
2022/12/02 01:27:19;;;;;;;76.78;26.75;;;;;;;;;;4980801;28;20128;-65
2022/12/02 01:29:44;;;;;;;91.78;30.95;;;;;;;;;;4981430;28;20046;-65
2022/12/02 01:32:09;;;;;;;83.15;28.88;;;;;;;;;;4980261;28;20045;-65
2022/12/02 01:34:35;;;;;;;89.25;29.77;;;;;;;;;;4979012;28;20411;-65
2022/12/02 01:37:00;;;;;;;89.80;28.60;;;;;;;;;;4981022;28;20105;-65
2022/12/02 01:39:26;;;;;;;80.43;28.70;;;;;;;;;;4981067;28;20049;-66
2022/12/02 01:41:51;;;;;;;92.20;30.05;;;;;;;;;;4983014;28;20392;-67
2022/12/02 01:44:16;;;;;;;89.45;28.80;;;;;;;;;;4982494;28;20070;-67
2022/12/02 01:46:42;;;;;;;88.47;29.75;;;;;;;;;;4982620;28;20392;-67
2022/12/02 01:49:08;;;;;;;82.40;28.23;;;;;;;;;;4981940;28;20108;-66
2022/12/02 01:51:33;;;;;;;91.07;29.08;;;;;;;;;;4982023;28;20053;-67
2022/12/02 01:53:59;;;;;;;84.28;28.70;;;;;;;;;;4980862;28;20054;-66
2022/12/02 01:56:26;;;;;;;86.63;30.98;;;;;;;;;;4980294;28;20046;-66
2022/12/02 01:58:52;;;;;;;81.38;27.25;;;;;;;;;;4980312;28;20626;-66
2022/12/02 02:01:28;;;;;;;96.45;30.92;;;;;;;;;;4980963;28;20399;-66
2022/12/02 02:03:54;;;;;;;96.25;30.60;;;;;;;;;;4981221;28;20042;-66
2022/12/02 02:06:19;;;;;;;88.63;28.33;;;;;;;;;;4981517;28;20046;-67
2022/12/02 02:08:45;;;;;;;85.68;29.60;;;;;;;;;;4979989;28;20518;-67
2022/12/02 02:11:11;;;;;;;82.53;27.58;;;;;;;;;;4979657;28;20051;-66
2022/12/02 02:13:36;;;;;;;78.88;28.02;;;;;;;;;;4981996;28;20570;-67
2022/12/02 02:16:02;;;;;;;74.75;26.85;;;;;;;;;;4980382;28;20053;-66
2022/12/02 02:18:29;;;;;;;71.97;26.33;;;;;;;;;;4979911;28;20129;-66
2022/12/02 02:20:57;;;;;;;70.03;25.73;;;;;;;;;;4981735;28;20047;-66
2022/12/02 02:23:25;;;;;;;81.32;27.52;;;;;;;;;;4969469;28;20057;-66
2022/12/02 02:25:57;;;;;;;82.82;27.90;;;;;;;;;;4999976;28;20050;-66
2022/12/02 02:28:28;;;;;;;77.13;27.25;;;;;;;;;;4984168;28;20240;-66
2022/12/02 02:30:55;;;;;;;84.60;27.67;;;;;;;;;;4980573;28;20411;-66
2022/12/02 02:33:26;;;;;;;67.82;26.60;;;;;;;;;;4990863;28;20069;-65
2022/12/02 02:35:52;;;;;;;77.40;28.48;;;;;;;;;;4985898;28;20050;-66
2022/12/02 02:38:21;;;;;;;70.53;25.83;;;;;;;;;;4984330;28;20088;-67
2022/12/02 02:40:48;;;;;;;88.53;27.67;;;;;;;;;;4983904;28;20050;-67
2022/12/02 02:43:16;;;;;;;76.55;25.35;;;;;;;;;;4983712;28;20145;-66
2022/12/02 02:45:43;;;;;;;81.43;27.98;;;;;;;;;;4983736;28;20050;-67
2022/12/02 02:48:11;;;;;;;81.97;27.50;;;;;;;;;;4984275;28;20427;-66
2022/12/02 02:50:39;;;;;;;83.90;27.52;;;;;;;;;;4982660;28;20042;-66
2022/12/02 02:53:06;;;;;;;78.88;27.10;;;;;;;;;;4982971;28;20050;-64
2022/12/02 02:55:33;;;;;;;85.13;27.58;;;;;;;;;;4998932;28;20046;-66
2022/12/02 02:58:12;;;;;;;89.63;28.63;;;;;;;;;;4988560;28;20134;-65
2022/12/02 03:00:41;;;;;;;77.35;27.52;;;;;;;;;;4982322;28;20046;-65
2022/12/02 03:03:09;;;;;;;91.32;29.60;;;;;;;;;;4984727;28;20038;-65
2022/12/02 03:05:38;;;;;;;108.72;30.38;;;;;;;;;;4982850;28;20061;-67
2022/12/02 03:08:05;;;;;;;92.07;29.63;;;;;;;;;;4999563;28;20549;-64
2022/12/02 03:10:31;;;;;;;100.32;31.67;;;;;;;;;;4984181;28;20442;-65
2022/12/02 03:12:57;;;;;;;96.80;29.40;;;;;;;;;;4982828;28;20168;-65
2022/12/02 03:15:26;;;;;;;103.50;32.08;;;;;;;;;;4984485;28;20124;-65
2022/12/02 03:17:52;;;;;;;106.20;32.72;;;;;;;;;;4983933;28;20842;-65
2022/12/02 03:20:18;;;;;;;98.07;29.30;;;;;;;;;;4984173;28;20046;-67
2022/12/02 03:22:44;;;;;;;103.38;30.98;;;;;;;;;;4983125;28;20141;-67
2022/12/02 03:25:10;;;;;;;105.13;30.63;;;;;;;;;;4984110;28;20148;-67
2022/12/02 03:27:36;;;;;;;108.82;32.95;;;;;;;;;;4983401;28;20058;-66
2022/12/02 03:30:02;;;;;;;104.97;32.13;;;;;;;;;;4983801;28;20069;-67
2022/12/02 03:32:28;;;;;;;100.53;30.75;;;;;;;;;;4983016;28;20046;-68
2022/12/02 03:34:54;;;;;;;105.15;30.52;;;;;;;;;;4984056;28;20097;-67
2022/12/02 03:37:21;;;;;;;108.55;32.17;;;;;;;;;;4983270;28;20081;-67
2022/12/02 03:39:47;;;;;;;108.32;30.83;;;;;;;;;;4983836;28;20057;-67
2022/12/02 03:42:13;;;;;;;88.85;29.83;;;;;;;;;;4984338;28;20065;-68
2022/12/02 03:44:39;;;;;;;107.35;31.27;;;;;;;;;;4983708;28;20054;-65
2022/12/02 03:47:04;;;;;;;114.97;32.55;;;;;;;;;;4984282;28;20062;-67
2022/12/02 03:49:32;;;;;;;97.75;30.77;;;;;;;;;;4983096;28;20101;-65
2022/12/02 03:51:58;;;;;;;107.63;32.72;;;;;;;;;;4983853;28;20074;-65
2022/12/02 03:54:23;;;;;;;105.22;33.50;;;;;;;;;;4984227;28;20093;-68
2022/12/02 03:56:49;;;;;;;98.68;30.63;;;;;;;;;;4983654;28;20049;-67
2022/12/02 03:59:20;;;;;;;87.03;29.33;;;;;;;;;;4983713;28;20058;-67
2022/12/02 04:01:46;;;;;;;90.45;29.80;;;;;;;;;;4984330;28;20458;-67
2022/12/02 04:04:12;;;;;;;91.57;29.63;;;;;;;;;;4984730;28;20046;-67
2022/12/02 04:06:37;;;;;;;89.05;29.17;;;;;;;;;;4984249;28;20069;-66
2022/12/02 04:09:03;;;;;;;96.20;29.45;;;;;;;;;;4984075;28;20070;-69
2022/12/02 04:11:28;;;;;;;85.18;28.33;;;;;;;;;;4984785;28;20491;-68
2022/12/02 04:13:54;;;;;;;92.43;30.25;;;;;;;;;;4984163;28;20522;-67
2022/12/02 04:16:19;;;;;;;97.50;30.30;;;;;;;;;;4983538;28;20054;-67
2022/12/02 04:18:44;;;;;;;96.95;30.85;;;;;;;;;;4982996;28;20042;-67
2022/12/02 04:21:10;;;;;;;86.40;30.75;;;;;;;;;;4984061;28;20050;-66
2022/12/02 04:23:35;;;;;;;98.30;31.08;;;;;;;;;;4983219;28;20057;-66
2022/12/02 04:26:01;;;;;;;101.40;31.25;;;;;;;;;;4981623;28;20042;-65
2022/12/02 04:28:27;;;;;;;92.00;29.35;;;;;;;;;;4983562;28;20137;-67
2022/12/02 04:30:52;;;;;;;90.13;30.85;;;;;;;;;;4981989;28;20058;-67
2022/12/02 04:33:17;;;;;;;132.68;38.47;;;;;;;;;;4981967;28;20038;-67
2022/12/02 04:35:43;;;;;;;109.18;34.72;;;;;;;;;;4982834;28;20046;-68
2022/12/02 04:38:08;;;;;;;100.47;32.28;;;;;;;;;;4984767;28;20493;-67
2022/12/02 04:40:34;;;;;;;92.45;30.50;;;;;;;;;;4981185;28;20065;-66
2022/12/02 04:42:59;;;;;;;89.10;30.95;;;;;;;;;;4983676;28;20054;-67
2022/12/02 04:45:25;;;;;;;96.50;32.20;;;;;;;;;;4982764;28;20460;-67
2022/12/02 04:47:50;;;;;;;90.40;29.80;;;;;;;;;;4982613;28;20074;-66
2022/12/02 04:50:16;;;;;;;89.15;29.33;;;;;;;;;;4984597;28;20097;-69
2022/12/02 04:52:41;;;;;;;84.55;29.25;;;;;;;;;;4985148;28;20562;-69
2022/12/02 04:55:07;;;;;;;85.72;28.92;;;;;;;;;;4985403;28;20058;-70
2022/12/02 04:57:33;;;;;;;81.18;27.48;;;;;;;;;;4985305;28;20126;-69
2022/12/02 04:59:58;;;;;;;70.70;26.85;;;;;;;;;;4984102;28;20050;-70
2022/12/02 05:02:24;;;;;;;81.60;28.38;;;;;;;;;;4985230;28;20061;-70
2022/12/02 05:04:49;;;;;;;91.20;30.77;;;;;;;;;;4984551;28;20050;-70
2022/12/02 05:07:15;;;;;;;71.32;27.42;;;;;;;;;;4984477;28;20517;-69
2022/12/02 05:09:40;;;;;;;82.97;28.45;;;;;;;;;;4984271;28;20491;-70
2022/12/02 05:12:06;;;;;;;86.55;32.60;;;;;;;;;;4984524;28;20058;-69
2022/12/02 05:14:31;;;;;;;86.72;31.02;;;;;;;;;;4984156;28;20088;-69
2022/12/02 05:16:56;;;;;;;88.60;30.27;;;;;;;;;;4983637;28;20518;-69
2022/12/02 05:19:22;;;;;;;92.07;29.67;;;;;;;;;;4984126;28;20053;-70
2022/12/02 05:21:47;;;;;;;88.60;29.23;;;;;;;;;;4984468;28;20104;-69
2022/12/02 05:24:13;;;;;;;89.47;30.15;;;;;;;;;;4983341;28;20105;-70
2022/12/02 05:26:38;;;;;;;86.07;28.35;;;;;;;;;;4983409;28;20124;-70
2022/12/02 05:29:04;;;;;;;86.05;29.42;;;;;;;;;;4983198;28;20554;-69
2022/12/02 05:31:30;;;;;;;91.38;31.58;;;;;;;;;;4983523;28;20048;-70
2022/12/02 05:33:56;;;;;;;92.15;29.63;;;;;;;;;;4967067;28;20462;-69
2022/12/02 05:36:21;;;;;;;80.75;27.17;;;;;;;;;;4983925;28;20046;-70
2022/12/02 05:38:46;;;;;;;91.45;32.25;;;;;;;;;;4983097;28;20054;-69
2022/12/02 05:41:12;;;;;;;91.32;27.67;;;;;;;;;;4983623;28;20072;-69
2022/12/02 05:43:40;;;;;;;91.70;31.17;;;;;;;;;;4983472;28;20046;-70
2022/12/02 05:46:14;;;;;;;82.35;29.60;;;;;;;;;;4983444;28;20050;-70
2022/12/02 05:48:39;;;;;;;88.78;29.17;;;;;;;;;;4983568;28;20049;-70
2022/12/02 05:51:12;;;;;;;87.57;27.15;;;;;;;;;;4982645;28;20042;-70
2022/12/02 05:53:40;;;;;;;73.40;27.25;;;;;;;;;;4973492;28;20481;-71
2022/12/02 05:56:11;;;;;;;83.88;30.42;;;;;;;;;;4983258;28;20496;-68
2022/12/02 05:58:39;;;;;;;82.03;27.98;;;;;;;;;;4980455;28;20069;-72
2022/12/02 06:01:21;;;;;;;86.30;28.30;;;;;;;;;;4981476;28;20046;-72
2022/12/02 06:03:47;;;;;;;87.17;28.63;;;;;;;;;;4982376;28;20748;-71
2022/12/02 06:06:12;;;;;;;84.88;29.48;;;;;;;;;;4983976;28;20050;-70
2022/12/02 06:08:38;;;;;;;89.68;29.75;;;;;;;;;;4983179;28;20073;-69
2022/12/02 06:11:29;;;;;;;91.90;29.83;;;;;;;;;;4980311;28;20085;-69
2022/12/02 06:14:00;;;;;;;78.32;27.27;;;;;;;;;;4979617;28;20046;-70
2022/12/02 06:16:28;;;;;;;84.55;29.27;;;;;;;;;;4979575;28;20050;-69
2022/12/02 06:18:54;;;;;;;88.43;28.75;;;;;;;;;;4978983;28;20050;-69
2022/12/02 06:21:21;;;;;;;91.88;30.45;;;;;;;;;;4978283;28;20052;-69
2022/12/02 06:23:50;;;;;;;99.90;32.42;;;;;;;;;;4977966;28;20050;-69
2022/12/02 06:26:18;;;;;;;90.38;29.52;;;;;;;;;;4978322;28;20058;-69
2022/12/02 06:28:48;;;;;;;85.85;27.15;;;;;;;;;;4978060;28;20061;-69
2022/12/02 06:31:24;;;;;;;79.53;30.02;;;;;;;;;;4978995;28;20042;-69
2022/12/02 06:33:52;;;;;;;78.13;28.20;;;;;;;;;;4978098;28;20042;-67
2022/12/02 06:36:22;;;;;;;106.90;34.30;;;;;;;;;;4979422;28;20077;-70
2022/12/02 06:38:54;;;;;;;98.05;31.25;;;;;;;;;;4980782;28;21677;-70
2022/12/02 06:41:22;;;;;;;97.72;30.73;;;;;;;;;;4981164;28;20054;-70
2022/12/02 06:46:36;;;;;;;90.63;29.00;;;;;;;;;;4994755;28;20096;-67
2022/12/02 06:49:28;;;;;;;109.35;31.40;;;;;;;;;;4981695;28;20050;-69
2022/12/02 06:52:15;;;;;;;101.28;31.30;;;;;;;;;;4981113;28;20046;-67
2022/12/02 06:54:43;;;;;;;92.85;29.67;;;;;;;;;;4979831;28;20058;-67
2022/12/02 06:57:09;;;;;;;84.07;29.25;;;;;;;;;;4979327;28;20054;-69
2022/12/02 06:59:35;;;;;;;96.53;30.52;;;;;;;;;;4981189;28;20053;-70
2022/12/02 07:02:11;;;;;;;99.15;31.90;;;;;;;;;;4980677;28;20392;-69
2022/12/02 07:04:42;;;;;;;79.28;27.52;;;;;;;;;;4979310;28;20414;-71
2022/12/02 07:07:16;;;;;;;81.78;28.33;;;;;;;;;;4979761;28;20050;-71
2022/12/02 07:09:45;;;;;;;89.65;30.75;;;;;;;;;;4980931;28;20053;-70
2022/12/02 07:12:18;;;;;;;87.35;31.83;;;;;;;;;;4985703;28;20503;-70
2022/12/02 07:14:48;;;;;;;80.38;27.02;;;;;;;;;;4983565;28;20044;-70
2022/12/02 07:17:18;;;;;;;63.85;26.05;;;;;;;;;;4983421;28;20042;-72
2022/12/02 07:19:47;;;;;;;72.90;27.05;;;;;;;;;;4983228;28;20050;-73
2022/12/02 07:22:20;;;;;;;76.13;27.15;;;;;;;;;;4983293;28;20133;-70
2022/12/02 07:25:08;;;;;;;74.60;27.38;;;;;;;;;;4983504;28;20058;-70
2022/12/02 07:27:40;;;;;;;78.07;28.98;;;;;;;;;;4952348;28;20046;-71
2022/12/02 07:30:33;;;;;;;85.47;29.75;;;;;;;;;;4982750;28;20050;-70
2022/12/02 07:32:59;;;;;;;86.05;28.70;;;;;;;;;;4982680;28;20050;-68
2022/12/02 07:35:25;;;;;;;76.15;28.17;;;;;;;;;;4983623;28;20061;-67
2022/12/02 07:37:51;;;;;;;75.75;27.50;;;;;;;;;;4982980;28;20046;-69
2022/12/02 07:40:17;;;;;;;84.15;29.42;;;;;;;;;;4981535;28;20518;-71
2022/12/02 07:42:44;;;;;;;73.57;26.25;;;;;;;;;;4982109;28;20042;-71
2022/12/02 07:45:11;;;;;;;69.68;27.75;;;;;;;;;;4982910;28;20050;-70
2022/12/02 07:47:36;;;;;;;75.07;28.77;;;;;;;;;;4983227;28;20077;-69
2022/12/02 07:50:03;;;;;;;78.32;28.55;;;;;;;;;;4983936;28;20081;-72
2022/12/02 07:52:28;;;;;;;74.25;27.25;;;;;;;;;;4981506;28;20085;-71
2022/12/02 07:54:54;;;;;;;75.15;27.80;;;;;;;;;;4980538;28;20574;-72
2022/12/02 07:57:20;;;;;;;85.13;30.02;;;;;;;;;;4982465;28;20101;-71
2022/12/02 07:59:45;;;;;;;80.35;30.13;;;;;;;;;;4983172;28;20112;-73
2022/12/02 08:02:11;;;;;;;92.32;31.77;;;;;;;;;;4982113;28;21018;-72
2022/12/02 08:04:37;;;;;;;86.03;29.20;;;;;;;;;;4981775;28;20056;-73
2022/12/02 08:07:02;;;;;;;80.80;29.40;;;;;;;;;;4982893;28;20495;-69
2022/12/02 08:09:28;;;;;;;82.07;30.83;;;;;;;;;;4982774;28;20085;-72
2022/12/02 08:11:53;;;;;;;85.18;32.30;;;;;;;;;;4982414;28;20054;-71
2022/12/02 08:14:19;;;;;;;88.50;30.05;;;;;;;;;;4981580;28;20065;-71
2022/12/02 08:16:44;;;;;;;83.20;28.60;;;;;;;;;;4981779;28;20054;-71
2022/12/02 08:19:12;;;;;;;85.78;29.70;;;;;;;;;;4982677;28;20045;-70
2022/12/02 08:21:39;;;;;;;75.88;30.13;;;;;;;;;;4982258;28;20049;-71
2022/12/02 08:24:07;;;;;;;97.35;32.50;;;;;;;;;;4984400;28;20054;-71
2022/12/02 08:26:33;;;;;;;86.35;31.05;;;;;;;;;;4984037;28;20047;-70
2022/12/02 08:28:59;;;;;;;84.13;30.50;;;;;;;;;;4982242;28;20454;-70
2022/12/02 08:31:24;;;;;;;82.20;28.75;;;;;;;;;;4982578;28;20110;-72
2022/12/02 08:33:50;;;;;;;72.63;28.15;;;;;;;;;;4981710;28;20495;-69
2022/12/02 08:36:16;;;;;;;77.65;30.38;;;;;;;;;;4981097;28;20065;-70
2022/12/02 08:38:42;;;;;;;82.53;28.92;;;;;;;;;;4981650;28;20042;-70
2022/12/02 08:41:08;;;;;;;88.55;30.88;;;;;;;;;;4982004;28;20439;-70
2022/12/02 08:43:33;;;;;;;84.20;30.83;;;;;;;;;;4982070;28;20061;-70
2022/12/02 08:45:59;;;;;;;100.43;33.83;;;;;;;;;;4981585;28;20057;-72
2022/12/02 08:48:24;;;;;;;77.85;28.02;;;;;;;;;;4981298;28;20050;-70
2022/12/02 08:50:50;;;;;;;77.50;28.20;;;;;;;;;;4981414;28;20054;-71
2022/12/02 08:53:15;;;;;;;85.63;30.95;;;;;;;;;;4982153;28;20055;-71
2022/12/02 08:55:41;;;;;;;90.50;34.42;;;;;;;;;;4981730;28;20056;-70
2022/12/02 08:58:06;;;;;;;83.53;29.02;;;;;;;;;;4981002;28;20108;-71
2022/12/02 09:00:32;;;;;;;87.25;31.83;;;;;;;;;;4980720;28;20050;-72
2022/12/02 09:02:57;;;;;;;84.10;29.25;;;;;;;;;;4996748;28;20503;-72
2022/12/02 09:05:23;;;;;;;81.30;29.40;;;;;;;;;;4981772;28;20058;-72
2022/12/02 09:07:48;;;;;;;80.40;28.92;;;;;;;;;;4996820;28;20134;-73
2022/12/02 09:10:14;;;;;;;78.03;27.50;;;;;;;;;;4980549;28;20089;-71
2022/12/02 09:12:40;;;;;;;67.28;26.95;;;;;;;;;;4981121;28;20078;-71
2022/12/02 09:15:06;;;;;;;76.65;27.42;;;;;;;;;;4981811;28;20042;-70
2022/12/02 09:17:32;;;;;;;72.38;28.17;;;;;;;;;;4981640;28;20049;-70
2022/12/02 09:19:58;;;;;;;71.80;28.75;;;;;;;;;;4980753;28;20064;-70
2022/12/02 09:22:23;;;;;;;72.60;27.85;;;;;;;;;;4981354;28;20042;-71
2022/12/02 09:24:48;;;;;;;83.55;29.55;;;;;;;;;;4980427;28;20116;-71
2022/12/02 09:27:14;;;;;;;73.50;25.35;;;;;;;;;;4980954;28;20392;-71
2022/12/02 09:29:39;;;;;;;71.38;29.05;;;;;;;;;;4981616;28;20042;-71
2022/12/02 09:32:05;;;;;;;64.80;25.42;;;;;;;;;;4995282;28;20136;-70
2022/12/02 09:34:31;;;;;;;69.03;26.90;;;;;;;;;;4980166;28;20073;-71
2022/12/02 09:36:56;;;;;;;68.85;27.05;;;;;;;;;;4980666;28;20141;-73
2022/12/02 09:39:22;;;;;;;56.80;22.77;;;;;;;;;;4981335;28;20046;-74
2022/12/02 09:41:47;;;;;;;63.15;24.17;;;;;;;;;;4980132;28;20061;-74
2022/12/02 09:44:13;;;;;;;60.55;24.75;;;;;;;;;;4978963;28;20089;-72
2022/12/02 09:46:38;;;;;;;58.50;24.13;;;;;;;;;;4980324;28;20462;-72
2022/12/02 09:49:04;;;;;;;62.38;25.42;;;;;;;;;;4981124;28;20050;-71
2022/12/02 09:51:31;;;;;;;52.60;21.77;;;;;;;;;;4979766;28;20046;-72
2022/12/02 09:53:57;;;;;;;56.65;23.52;;;;;;;;;;4980061;28;21020;-71
2022/12/02 09:56:23;;;;;;;58.00;24.13;;;;;;;;;;4981116;28;20074;-71
2022/12/02 09:58:50;;;;;;;54.90;23.80;;;;;;;;;;4980348;28;20049;-72
2022/12/02 10:01:16;;;;;;;52.67;23.10;;;;;;;;;;4980716;28;20050;-74
2022/12/02 10:03:44;;;;;;;56.25;23.25;;;;;;;;;;4980323;28;20590;-73
2022/12/02 10:06:23;;;;;;;50.80;22.40;;;;;;;;;;4980288;28;20078;-74
2022/12/02 10:08:49;;;;;;;54.90;23.98;;;;;;;;;;4980094;28;20481;-72
2022/12/02 10:11:26;;;;;;;54.63;23.13;;;;;;;;;;4980775;28;20077;-71
2022/12/02 10:13:53;;;;;;;57.90;24.00;;;;;;;;;;4980849;28;20086;-72
2022/12/02 10:16:18;;;;;;;56.25;24.27;;;;;;;;;;4979527;28;20085;-72
2022/12/02 10:18:44;;;;;;;60.70;25.20;;;;;;;;;;4980649;28;20038;-73
2022/12/02 10:21:10;;;;;;;56.58;23.60;;;;;;;;;;4980255;28;20153;-73
2022/12/02 10:23:52;;;;;;;54.25;23.38;;;;;;;;;;4980704;28;20395;-71
2022/12/02 10:26:18;;;;;;;52.03;22.58;;;;;;;;;;4979605;28;20078;-71
2022/12/02 10:28:58;;;;;;;48.38;22.55;;;;;;;;;;4980283;28;20061;-72
2022/12/02 10:31:24;;;;;;;53.45;22.75;;;;;;;;;;4995504;28;20046;-71
2022/12/02 10:33:53;;;;;;;57.38;24.95;;;;;;;;;;4980400;28;20092;-71
2022/12/02 10:36:34;;;;;;;56.72;24.05;;;;;;;;;;4979413;28;20046;-72
2022/12/02 10:39:27;;;;;;;57.00;24.20;;;;;;;;;;4995068;28;20597;-71
2022/12/02 10:42:06;;;;;;;54.38;23.05;;;;;;;;;;4980339;28;20092;-73
2022/12/02 10:44:41;;;;;;;57.83;23.52;;;;;;;;;;4980158;28;20038;-71
2022/12/02 10:47:17;;;;;;;59.10;24.48;;;;;;;;;;4983414;28;20050;-71
2022/12/02 10:49:47;;;;;;;53.90;23.38;;;;;;;;;;4983938;28;20410;-73
2022/12/02 10:52:13;;;;;;;57.67;22.75;;;;;;;;;;4983861;28;20128;-75
2022/12/02 10:54:43;;;;;;;54.13;22.55;;;;;;;;;;4983314;28;20157;-74
2022/12/02 10:57:12;;;;;;;55.80;23.55;;;;;;;;;;4983734;28;20042;-72
2022/12/02 10:59:38;;;;;;;55.70;22.45;;;;;;;;;;4982045;28;20514;-74
2022/12/02 11:02:19;;;;;;;56.42;22.33;;;;;;;;;;4983485;28;20046;-71
2022/12/02 11:04:44;;;;;;;54.58;23.23;;;;;;;;;;4983421;28;20046;-73
2022/12/02 11:07:14;;;;;;;62.80;25.55;;;;;;;;;;4983951;28;20100;-73
2022/12/02 11:09:44;;;;;;;52.95;23.25;;;;;;;;;;4983393;28;20145;-72
2022/12/02 11:12:29;;;;;;;54.97;24.00;;;;;;;;;;4983452;28;20057;-71
2022/12/02 11:14:55;;;;;;;57.47;22.25;;;;;;;;;;4983437;28;20050;-74
2022/12/02 11:17:48;;;;;;;53.55;23.85;;;;;;;;;;4983573;28;20045;-72
2022/12/02 11:20:33;;;;;;;54.08;23.75;;;;;;;;;;4983134;28;20042;-72
2022/12/02 11:22:59;;;;;;;56.13;23.70;;;;;;;;;;4983008;28;20120;-71
2022/12/02 11:25:43;;;;;;;50.55;21.17;;;;;;;;;;4981590;28;20053;-73
2022/12/02 11:28:27;;;;;;;54.33;23.30;;;;;;;;;;4982232;28;20042;-74
2022/12/02 11:31:10;;;;;;;57.53;23.67;;;;;;;;;;4982844;28;20129;-70
2022/12/02 11:33:42;;;;;;;58.63;22.58;;;;;;;;;;4982819;28;20042;-70
2022/12/02 11:36:07;;;;;;;58.15;24.23;;;;;;;;;;4983410;28;20089;-69
2022/12/02 11:38:52;;;;;;;58.50;24.35;;;;;;;;;;4982373;28;20070;-77
2022/12/02 11:41:21;;;;;;;60.28;23.95;;;;;;;;;;4983330;28;20046;-74
2022/12/02 11:43:46;;;;;;;51.42;22.00;;;;;;;;;;4982249;28;20050;-71
2022/12/02 11:46:20;;;;;;;64.80;26.25;;;;;;;;;;4982280;28;20054;-69
2022/12/02 11:48:52;;;;;;;69.97;26.05;;;;;;;;;;4982179;28;20046;-72
2022/12/02 11:51:26;;;;;;;;;;;;;;;;;;4981836;28;20066;-69
2022/12/02 11:53:51;;;;;;;66.43;24.67;;;;;;;;;;4979433;28;20386;-70
2022/12/02 11:56:17;;;;;;;66.72;26.38;;;;;;;;;;4980892;28;20054;-71
2022/12/02 11:58:43;;;;;;;57.88;23.48;;;;;;;;;;4980377;28;20697;-73
2022/12/02 12:01:18;;;;;;;63.13;23.92;;;;;;;;;;4980876;28;20046;-73
2022/12/02 12:03:45;;;;;;;68.32;27.13;;;;;;;;;;4981408;28;20563;-73
2022/12/02 12:06:16;;;;;;;60.38;25.75;;;;;;;;;;4986096;28;20124;-72
2022/12/02 12:08:44;;;;;;;68.90;27.27;;;;;;;;;;4980385;28;20050;-72
2022/12/02 12:11:24;;;;;;;70.47;27.15;;;;;;;;;;4980477;28;20042;-73
2022/12/02 12:14:03;;;;;;;60.38;23.70;;;;;;;;;;4980415;28;20659;-72
2022/12/02 12:16:35;;;;;;;64.55;24.95;;;;;;;;;;4979288;28;20539;-71
2022/12/02 12:19:11;;;;;;;65.85;23.83;;;;;;;;;;4980426;28;20058;-73
2022/12/02 12:21:53;;;;;;;62.22;24.33;;;;;;;;;;4980573;28;20496;-74
2022/12/02 12:24:22;;;;;;;60.65;24.75;;;;;;;;;;4979901;28;20491;-69
2022/12/02 12:27:02;;;;;;;58.92;24.25;;;;;;;;;;4993928;28;20042;-70
2022/12/02 12:29:33;;;;;;;61.60;24.55;;;;;;;;;;4980763;28;20050;-73
2022/12/02 12:31:59;;;;;;;61.42;23.05;;;;;;;;;;4980093;28;20117;-70
2022/12/02 12:34:25;;;;;;;58.22;23.45;;;;;;;;;;4993382;28;20197;-72
2022/12/02 12:36:50;;;;;;;59.70;25.73;;;;;;;;;;4978041;28;20064;-72
2022/12/02 12:39:16;;;;;;;57.97;24.20;;;;;;;;;;4979689;28;20276;-70
2022/12/02 12:41:43;;;;;;;60.05;25.63;;;;;;;;;;4980031;28;20094;-72
2022/12/02 12:44:08;;;;;;;54.85;23.00;;;;;;;;;;4980080;28;20185;-71
2022/12/02 12:46:34;;;;;;;60.15;23.30;;;;;;;;;;4979770;28;20050;-71
2022/12/02 12:48:59;;;;;;;54.28;22.52;;;;;;;;;;4978817;28;20046;-71
2022/12/02 12:51:25;;;;;;;63.70;24.73;;;;;;;;;;4979628;28;20096;-70
2022/12/02 12:53:51;;;;;;;74.20;28.88;;;;;;;;;;4979948;28;20042;-71
2022/12/02 12:56:17;;;;;;;72.97;27.05;;;;;;;;;;4980894;28;20113;-70
2022/12/02 12:58:44;;;;;;;64.95;26.25;;;;;;;;;;4979343;28;20037;-71
2022/12/02 13:01:10;;;;;;;93.13;36.28;;;;;;;;;;4976752;28;20054;-71
2022/12/02 13:03:36;;;;;;;64.28;25.20;;;;;;;;;;4981352;28;20057;-71
2022/12/02 13:06:02;;;;;;;64.85;25.02;;;;;;;;;;4981711;28;20139;-71
2022/12/02 13:08:27;;;;;;;55.13;22.73;;;;;;;;;;4979946;28;20050;-70
2022/12/02 13:10:53;;;;;;;48.97;20.92;;;;;;;;;;4973284;28;20085;-73
2022/12/02 13:13:19;;;;;;;53.30;21.38;;;;;;;;;;4978059;28;20042;-72
2022/12/02 13:15:44;;;;;;;54.78;22.83;;;;;;;;;;4979962;28;20041;-71
2022/12/02 13:18:10;;;;;;;69.55;25.08;;;;;;;;;;4978338;28;20052;-71
2022/12/02 13:20:35;;;;;;;61.28;23.40;;;;;;;;;;4975642;28;20044;-71
2022/12/02 13:23:01;;;;;;;60.72;23.67;;;;;;;;;;4976045;28;20049;-71
2022/12/02 13:25:27;;;;;;;54.90;21.90;;;;;;;;;;4977474;28;20521;-69
2022/12/02 13:27:52;;;;;;;51.00;22.15;;;;;;;;;;4977125;28;20121;-68
2022/12/02 13:30:19;;;;;;;55.42;20.38;;;;;;;;;;4978000;28;20559;-69
2022/12/02 13:32:46;;;;;;;49.70;22.73;;;;;;;;;;4976033;28;20042;-68
2022/12/02 13:35:13;;;;;;;56.67;23.42;;;;;;;;;;4976805;28;20723;-69
2022/12/02 13:37:38;;;;;;;54.08;21.90;;;;;;;;;;4978129;28;20149;-69
2022/12/02 13:40:06;;;;;;;52.28;21.88;;;;;;;;;;4975588;28;20074;-73
2022/12/02 13:42:31;;;;;;;52.22;22.48;;;;;;;;;;4974409;28;20452;-72
2022/12/02 13:44:57;;;;;;;59.08;23.05;;;;;;;;;;4975754;28;20096;-71
2022/12/02 13:47:22;;;;;;;56.13;22.38;;;;;;;;;;4976557;28;20432;-71
2022/12/02 13:49:48;;;;;;;52.25;22.33;;;;;;;;;;4992155;28;20054;-72
2022/12/02 13:52:13;;;;;;;49.65;21.88;;;;;;;;;;4972428;28;20137;-72
2022/12/02 13:54:39;;;;;;;57.30;24.55;;;;;;;;;;4976442;28;20038;-72
2022/12/02 13:57:05;;;;;;;55.67;24.63;;;;;;;;;;4977185;28;20058;-71
2022/12/02 13:59:30;;;;;;;66.85;24.90;;;;;;;;;;4978305;28;20128;-72
2022/12/02 14:01:55;;;;;;;64.32;25.63;;;;;;;;;;4976019;28;20080;-72
2022/12/02 14:04:21;;;;;;;63.42;26.70;;;;;;;;;;4975014;28;20045;-70
2022/12/02 14:06:46;;;;;;;72.32;26.20;;;;;;;;;;4975615;28;20124;-69
2022/12/02 14:09:12;;;;;;;64.78;23.90;;;;;;;;;;4978191;28;20141;-71
2022/12/02 14:11:37;;;;;;;58.60;23.67;;;;;;;;;;4978466;28;20049;-70
2022/12/02 14:14:03;;;;;;;58.58;23.27;;;;;;;;;;4978565;28;20126;-70
2022/12/02 14:16:28;;;;;;;65.43;26.02;;;;;;;;;;4978441;28;20054;-71
2022/12/02 14:18:54;;;;;;;58.25;24.17;;;;;;;;;;4978164;28;20050;-72
2022/12/02 14:21:19;;;;;;;51.05;22.85;;;;;;;;;;4980679;28;20938;-71
2022/12/02 14:23:45;;;;;;;50.67;21.27;;;;;;;;;;4981925;28;20064;-71
2022/12/02 14:26:10;;;;;;;49.60;22.25;;;;;;;;;;4982385;28;20065;-70
2022/12/02 14:28:36;;;;;;;50.60;21.23;;;;;;;;;;4981422;28;20038;-69